sensor_id;sensor_type;location;lat;lon;timestamp;P1;durP1;ratioP1;P2;durP2;ratioP2
23800;SDS011;12081;48.614;10.226;2023-05-07T00:00:26;5.53;;;3.43;;
23800;SDS011;12081;48.614;10.226;2023-05-07T00:03:10;6.03;;;3.77;;
23800;SDS011;12081;48.614;10.226;2023-05-07T00:05:57;6.30;;;3.03;;
23800;SDS011;12081;48.614;10.226;2023-05-07T00:08:42;5.00;;;3.27;;
23800;SDS011;12081;48.614;10.226;2023-05-07T00:11:26;5.47;;;3.27;;
23800;SDS011;12081;48.614;10.226;2023-05-07T00:14:11;3.60;;;2.87;;
23800;SDS011;12081;48.614;10.226;2023-05-07T00:16:55;4.30;;;2.80;;
23800;SDS011;12081;48.614;10.226;2023-05-07T00:19:39;4.00;;;2.90;;
23800;SDS011;12081;48.614;10.226;2023-05-07T00:22:24;3.83;;;2.90;;
23800;SDS011;12081;48.614;10.226;2023-05-07T00:25:08;3.57;;;3.00;;
23800;SDS011;12081;48.614;10.226;2023-05-07T00:27:53;4.07;;;2.60;;
23800;SDS011;12081;48.614;10.226;2023-05-07T00:30:37;3.17;;;2.83;;
23800;SDS011;12081;48.614;10.226;2023-05-07T00:33:21;3.37;;;2.93;;
23800;SDS011;12081;48.614;10.226;2023-05-07T00:36:06;6.30;;;3.30;;
23800;SDS011;12081;48.614;10.226;2023-05-07T00:38:50;3.77;;;2.90;;
23800;SDS011;12081;48.614;10.226;2023-05-07T00:41:34;2.90;;;2.53;;
23800;SDS011;12081;48.614;10.226;2023-05-07T00:44:18;4.07;;;3.07;;
23800;SDS011;12081;48.614;10.226;2023-05-07T00:47:03;6.27;;;3.20;;
23800;SDS011;12081;48.614;10.226;2023-05-07T00:49:48;3.13;;;2.80;;
23800;SDS011;12081;48.614;10.226;2023-05-07T00:52:32;4.47;;;3.23;;
23800;SDS011;12081;48.614;10.226;2023-05-07T00:55:17;4.33;;;3.00;;
23800;SDS011;12081;48.614;10.226;2023-05-07T00:58:02;4.17;;;3.77;;
23800;SDS011;12081;48.614;10.226;2023-05-07T01:00:46;6.27;;;3.50;;
23800;SDS011;12081;48.614;10.226;2023-05-07T01:03:30;4.30;;;3.40;;
23800;SDS011;12081;48.614;10.226;2023-05-07T01:06:14;5.13;;;3.30;;
23800;SDS011;12081;48.614;10.226;2023-05-07T01:09:00;4.77;;;3.87;;
23800;SDS011;12081;48.614;10.226;2023-05-07T01:11:44;3.83;;;3.17;;
23800;SDS011;12081;48.614;10.226;2023-05-07T01:14:30;4.53;;;3.60;;
23800;SDS011;12081;48.614;10.226;2023-05-07T01:17:16;5.23;;;3.07;;
23800;SDS011;12081;48.614;10.226;2023-05-07T01:20:01;3.97;;;3.33;;
23800;SDS011;12081;48.614;10.226;2023-05-07T01:22:45;4.07;;;3.30;;
23800;SDS011;12081;48.614;10.226;2023-05-07T01:25:29;6.10;;;3.70;;
23800;SDS011;12081;48.614;10.226;2023-05-07T01:28:14;3.60;;;3.30;;
23800;SDS011;12081;48.614;10.226;2023-05-07T01:31:00;4.17;;;3.00;;
23800;SDS011;12081;48.614;10.226;2023-05-07T01:33:47;3.50;;;3.00;;
23800;SDS011;12081;48.614;10.226;2023-05-07T01:36:33;4.80;;;3.23;;
23800;SDS011;12081;48.614;10.226;2023-05-07T01:39:20;3.83;;;2.90;;
23800;SDS011;12081;48.614;10.226;2023-05-07T01:42:08;3.60;;;2.87;;
23800;SDS011;12081;48.614;10.226;2023-05-07T01:44:53;3.93;;;3.20;;
23800;SDS011;12081;48.614;10.226;2023-05-07T01:47:37;2.90;;;2.67;;
23800;SDS011;12081;48.614;10.226;2023-05-07T01:50:22;3.37;;;2.93;;
23800;SDS011;12081;48.614;10.226;2023-05-07T01:53:06;4.03;;;3.10;;
23800;SDS011;12081;48.614;10.226;2023-05-07T01:55:50;6.87;;;3.40;;
23800;SDS011;12081;48.614;10.226;2023-05-07T01:58:34;3.83;;;3.20;;
23800;SDS011;12081;48.614;10.226;2023-05-07T02:01:18;3.10;;;2.70;;
23800;SDS011;12081;48.614;10.226;2023-05-07T02:04:02;5.30;;;3.17;;
23800;SDS011;12081;48.614;10.226;2023-05-07T02:06:46;5.00;;;3.10;;
23800;SDS011;12081;48.614;10.226;2023-05-07T02:09:30;5.87;;;3.50;;
23800;SDS011;12081;48.614;10.226;2023-05-07T02:12:14;6.17;;;3.67;;
23800;SDS011;12081;48.614;10.226;2023-05-07T02:14:58;4.67;;;3.30;;
23800;SDS011;12081;48.614;10.226;2023-05-07T02:18:02;4.53;;;3.00;;
23800;SDS011;12081;48.614;10.226;2023-05-07T02:20:47;7.53;;;3.47;;
23800;SDS011;12081;48.614;10.226;2023-05-07T02:23:31;3.90;;;3.00;;
23800;SDS011;12081;48.614;10.226;2023-05-07T02:26:16;4.10;;;3.33;;
23800;SDS011;12081;48.614;10.226;2023-05-07T02:29:00;3.50;;;3.20;;
23800;SDS011;12081;48.614;10.226;2023-05-07T02:31:44;4.40;;;3.40;;
23800;SDS011;12081;48.614;10.226;2023-05-07T02:34:28;5.03;;;3.47;;
23800;SDS011;12081;48.614;10.226;2023-05-07T02:37:12;4.20;;;3.20;;
23800;SDS011;12081;48.614;10.226;2023-05-07T02:39:56;9.37;;;4.17;;
23800;SDS011;12081;48.614;10.226;2023-05-07T05:19:48;4.53;;;3.50;;
23800;SDS011;12081;48.614;10.226;2023-05-07T05:22:32;4.07;;;3.53;;
23800;SDS011;12081;48.614;10.226;2023-05-07T05:31:23;6.83;;;3.67;;
23800;SDS011;12081;48.614;10.226;2023-05-07T05:34:07;5.80;;;4.10;;
23800;SDS011;12081;48.614;10.226;2023-05-07T05:36:51;4.00;;;3.70;;
23800;SDS011;12081;48.614;10.226;2023-05-07T05:39:35;4.40;;;4.00;;
23800;SDS011;12081;48.614;10.226;2023-05-07T05:42:20;6.70;;;3.80;;
23800;SDS011;12081;48.614;10.226;2023-05-07T05:45:05;5.93;;;4.17;;
23800;SDS011;12081;48.614;10.226;2023-05-07T05:47:49;5.27;;;4.03;;
23800;SDS011;12081;48.614;10.226;2023-05-07T05:50:33;5.00;;;4.07;;
23800;SDS011;12081;48.614;10.226;2023-05-07T05:53:20;4.07;;;3.73;;
23800;SDS011;12081;48.614;10.226;2023-05-07T06:25:42;4.13;;;3.67;;
23800;SDS011;12081;48.614;10.226;2023-05-07T06:28:29;3.70;;;3.40;;
23800;SDS011;12081;48.614;10.226;2023-05-07T06:31:19;5.97;;;4.17;;
23800;SDS011;12081;48.614;10.226;2023-05-07T06:34:06;5.40;;;3.77;;
23800;SDS011;12081;48.614;10.226;2023-05-07T06:36:51;4.83;;;3.53;;
23800;SDS011;12081;48.614;10.226;2023-05-07T06:39:35;4.03;;;3.63;;
23800;SDS011;12081;48.614;10.226;2023-05-07T06:42:19;5.93;;;3.33;;
23800;SDS011;12081;48.614;10.226;2023-05-07T06:45:04;3.83;;;3.43;;
23800;SDS011;12081;48.614;10.226;2023-05-07T06:47:48;4.03;;;3.63;;
23800;SDS011;12081;48.614;10.226;2023-05-07T06:50:32;4.13;;;3.47;;
23800;SDS011;12081;48.614;10.226;2023-05-07T06:53:16;4.80;;;3.20;;
23800;SDS011;12081;48.614;10.226;2023-05-07T06:56:01;4.80;;;3.23;;
23800;SDS011;12081;48.614;10.226;2023-05-07T06:58:45;4.37;;;2.83;;
23800;SDS011;12081;48.614;10.226;2023-05-07T07:01:29;4.73;;;3.57;;
23800;SDS011;12081;48.614;10.226;2023-05-07T07:04:13;3.70;;;2.93;;
23800;SDS011;12081;48.614;10.226;2023-05-07T07:06:57;3.13;;;2.85;;
23800;SDS011;12081;48.614;10.226;2023-05-07T07:09:41;3.25;;;2.95;;
23800;SDS011;12081;48.614;10.226;2023-05-07T07:12:25;5.25;;;3.78;;
23800;SDS011;12081;48.614;10.226;2023-05-07T07:15:09;5.13;;;3.25;;
23800;SDS011;12081;48.614;10.226;2023-05-07T07:17:54;3.13;;;2.83;;
23800;SDS011;12081;48.614;10.226;2023-05-07T07:20:38;3.60;;;3.20;;
23800;SDS011;12081;48.614;10.226;2023-05-07T07:23:22;4.30;;;3.55;;
23800;SDS011;12081;48.614;10.226;2023-05-07T07:26:06;3.47;;;3.17;;
23800;SDS011;12081;48.614;10.226;2023-05-07T07:28:50;4.25;;;2.72;;
23800;SDS011;12081;48.614;10.226;2023-05-07T07:31:34;3.72;;;3.05;;
23800;SDS011;12081;48.614;10.226;2023-05-07T07:34:18;6.32;;;3.10;;
23800;SDS011;12081;48.614;10.226;2023-05-07T07:37:03;4.30;;;3.20;;
23800;SDS011;12081;48.614;10.226;2023-05-07T07:39:49;3.88;;;3.10;;
23800;SDS011;12081;48.614;10.226;2023-05-07T07:42:33;3.90;;;2.72;;
23800;SDS011;12081;48.614;10.226;2023-05-07T07:45:17;2.72;;;2.53;;
23800;SDS011;12081;48.614;10.226;2023-05-07T07:48:01;3.78;;;3.10;;
23800;SDS011;12081;48.614;10.226;2023-05-07T07:50:48;4.35;;;2.75;;
23800;SDS011;12081;48.614;10.226;2023-05-07T07:53:33;3.65;;;3.35;;
23800;SDS011;12081;48.614;10.226;2023-05-07T07:56:17;3.60;;;3.15;;
23800;SDS011;12081;48.614;10.226;2023-05-07T07:59:02;3.55;;;3.20;;
23800;SDS011;12081;48.614;10.226;2023-05-07T08:01:46;4.85;;;3.17;;
23800;SDS011;12081;48.614;10.226;2023-05-07T08:04:33;3.30;;;3.03;;
23800;SDS011;12081;48.614;10.226;2023-05-07T08:07:16;3.83;;;2.97;;
23800;SDS011;12081;48.614;10.226;2023-05-07T08:10:04;4.30;;;3.00;;
23800;SDS011;12081;48.614;10.226;2023-05-07T08:12:48;5.10;;;3.00;;
23800;SDS011;12081;48.614;10.226;2023-05-07T08:15:33;3.38;;;3.08;;
23800;SDS011;12081;48.614;10.226;2023-05-07T08:18:17;3.92;;;3.03;;
23800;SDS011;12081;48.614;10.226;2023-05-07T08:21:01;3.72;;;2.75;;
23800;SDS011;12081;48.614;10.226;2023-05-07T08:23:45;3.90;;;2.80;;
23800;SDS011;12081;48.614;10.226;2023-05-07T08:26:29;5.03;;;3.47;;
23800;SDS011;12081;48.614;10.226;2023-05-07T08:29:13;3.83;;;3.28;;
23800;SDS011;12081;48.614;10.226;2023-05-07T08:31:57;3.70;;;3.30;;
23800;SDS011;12081;48.614;10.226;2023-05-07T08:34:41;3.38;;;2.97;;
23800;SDS011;12081;48.614;10.226;2023-05-07T08:37:26;4.25;;;3.08;;
23800;SDS011;12081;48.614;10.226;2023-05-07T08:40:10;3.45;;;2.95;;
23800;SDS011;12081;48.614;10.226;2023-05-07T08:42:54;4.07;;;3.63;;
23800;SDS011;12081;48.614;10.226;2023-05-07T09:09:21;4.68;;;2.75;;
23800;SDS011;12081;48.614;10.226;2023-05-07T09:12:06;4.88;;;2.97;;
23800;SDS011;12081;48.614;10.226;2023-05-07T09:14:50;4.25;;;3.38;;
23800;SDS011;12081;48.614;10.226;2023-05-07T09:17:34;3.53;;;3.22;;
23800;SDS011;12081;48.614;10.226;2023-05-07T09:20:18;3.92;;;3.40;;
23800;SDS011;12081;48.614;10.226;2023-05-07T09:23:02;3.80;;;3.40;;
23800;SDS011;12081;48.614;10.226;2023-05-07T09:25:47;4.57;;;3.80;;
23800;SDS011;12081;48.614;10.226;2023-05-07T09:28:31;4.72;;;3.42;;
23800;SDS011;12081;48.614;10.226;2023-05-07T09:31:16;3.50;;;3.20;;
23800;SDS011;12081;48.614;10.226;2023-05-07T09:33:59;4.18;;;3.67;;
23800;SDS011;12081;48.614;10.226;2023-05-07T09:36:44;4.38;;;3.85;;
23800;SDS011;12081;48.614;10.226;2023-05-07T09:39:38;5.72;;;4.10;;
23800;SDS011;12081;48.614;10.226;2023-05-07T09:42:24;4.63;;;3.60;;
23800;SDS011;12081;48.614;10.226;2023-05-07T09:45:11;4.72;;;4.05;;
23800;SDS011;12081;48.614;10.226;2023-05-07T09:47:56;4.95;;;4.25;;
23800;SDS011;12081;48.614;10.226;2023-05-07T09:50:45;4.13;;;3.70;;
23800;SDS011;12081;48.614;10.226;2023-05-07T09:53:33;3.70;;;3.40;;
23800;SDS011;12081;48.614;10.226;2023-05-07T09:56:17;5.20;;;3.60;;
23800;SDS011;12081;48.614;10.226;2023-05-07T09:59:02;5.50;;;3.47;;
23800;SDS011;12081;48.614;10.226;2023-05-07T10:01:47;3.55;;;3.22;;
23800;SDS011;12081;48.614;10.226;2023-05-07T10:04:32;3.45;;;3.15;;
23800;SDS011;12081;48.614;10.226;2023-05-07T10:07:17;3.72;;;3.33;;
23800;SDS011;12081;48.614;10.226;2023-05-07T10:10:02;3.58;;;3.17;;
23800;SDS011;12081;48.614;10.226;2023-05-07T10:12:47;6.50;;;3.85;;
23800;SDS011;12081;48.614;10.226;2023-05-07T10:15:32;6.60;;;3.17;;
23800;SDS011;12081;48.614;10.226;2023-05-07T10:18:17;5.82;;;3.30;;
23800;SDS011;12081;48.614;10.226;2023-05-07T10:21:17;3.55;;;3.20;;
23800;SDS011;12081;48.614;10.226;2023-05-07T10:26:53;4.32;;;3.92;;
23800;SDS011;12081;48.614;10.226;2023-05-07T10:32:35;4.28;;;3.00;;
23800;SDS011;12081;48.614;10.226;2023-05-07T10:35:24;4.65;;;2.70;;
23800;SDS011;12081;48.614;10.226;2023-05-07T10:38:12;3.45;;;3.15;;
23800;SDS011;12081;48.614;10.226;2023-05-07T10:40:57;3.08;;;1.88;;
23800;SDS011;12081;48.614;10.226;2023-05-07T10:43:43;3.65;;;1.80;;
23800;SDS011;12081;48.614;10.226;2023-05-07T10:46:28;1.83;;;1.50;;
23800;SDS011;12081;48.614;10.226;2023-05-07T10:49:13;3.60;;;1.73;;
23800;SDS011;12081;48.614;10.226;2023-05-07T10:58:10;2.25;;;2.05;;
23800;SDS011;12081;48.614;10.226;2023-05-07T11:01:05;2.55;;;2.10;;
23800;SDS011;12081;48.614;10.226;2023-05-07T11:18:48;2.20;;;1.95;;
23800;SDS011;12081;48.614;10.226;2023-05-07T11:21:35;3.63;;;2.15;;
23800;SDS011;12081;48.614;10.226;2023-05-07T11:24:23;2.88;;;2.03;;
23800;SDS011;12081;48.614;10.226;2023-05-07T11:27:08;2.50;;;1.60;;
23800;SDS011;12081;48.614;10.226;2023-05-07T11:29:53;2.45;;;1.20;;
23800;SDS011;12081;48.614;10.226;2023-05-07T11:32:37;2.03;;;1.40;;
23800;SDS011;12081;48.614;10.226;2023-05-07T11:35:23;2.72;;;1.42;;
23800;SDS011;12081;48.614;10.226;2023-05-07T11:38:08;1.88;;;1.30;;
23800;SDS011;12081;48.614;10.226;2023-05-07T11:40:53;1.83;;;1.23;;
23800;SDS011;12081;48.614;10.226;2023-05-07T11:43:40;2.85;;;1.00;;
23800;SDS011;12081;48.614;10.226;2023-05-07T11:46:42;1.70;;;1.60;;
23800;SDS011;12081;48.614;10.226;2023-05-07T11:49:26;1.48;;;1.20;;
23800;SDS011;12081;48.614;10.226;2023-05-07T11:52:10;2.65;;;1.50;;
23800;SDS011;12081;48.614;10.226;2023-05-07T11:54:57;2.05;;;1.00;;
23800;SDS011;12081;48.614;10.226;2023-05-07T11:57:43;2.95;;;1.30;;
23800;SDS011;12081;48.614;10.226;2023-05-07T12:00:28;2.05;;;1.30;;
23800;SDS011;12081;48.614;10.226;2023-05-07T12:03:12;2.92;;;1.40;;
23800;SDS011;12081;48.614;10.226;2023-05-07T12:06:12;1.67;;;1.50;;
23800;SDS011;12081;48.614;10.226;2023-05-07T12:08:58;1.55;;;1.45;;
23800;SDS011;12081;48.614;10.226;2023-05-07T12:11:45;1.63;;;1.40;;
23800;SDS011;12081;48.614;10.226;2023-05-07T12:14:29;1.92;;;1.48;;
23800;SDS011;12081;48.614;10.226;2023-05-07T12:17:14;3.63;;;1.90;;
23800;SDS011;12081;48.614;10.226;2023-05-07T12:20:00;3.05;;;1.70;;
23800;SDS011;12081;48.614;10.226;2023-05-07T12:22:44;2.53;;;1.40;;
23800;SDS011;12081;48.614;10.226;2023-05-07T12:25:34;1.88;;;1.60;;
23800;SDS011;12081;48.614;10.226;2023-05-07T12:28:20;1.70;;;1.60;;
23800;SDS011;12081;48.614;10.226;2023-05-07T12:31:04;2.25;;;1.83;;
23800;SDS011;12081;48.614;10.226;2023-05-07T12:33:49;2.42;;;1.85;;
23800;SDS011;12081;48.614;10.226;2023-05-07T12:36:36;1.50;;;1.40;;
23800;SDS011;12081;48.614;10.226;2023-05-07T12:39:24;4.03;;;1.58;;
23800;SDS011;12081;48.614;10.226;2023-05-07T12:42:08;1.90;;;1.80;;
23800;SDS011;12081;48.614;10.226;2023-05-07T12:44:59;2.00;;;1.80;;
23800;SDS011;12081;48.614;10.226;2023-05-07T12:47:44;1.73;;;1.63;;
23800;SDS011;12081;48.614;10.226;2023-05-07T12:50:32;2.88;;;1.50;;
23800;SDS011;12081;48.614;10.226;2023-05-07T12:53:19;2.17;;;1.60;;
23800;SDS011;12081;48.614;10.226;2023-05-07T12:56:05;1.70;;;1.60;;
23800;SDS011;12081;48.614;10.226;2023-05-07T12:58:49;2.42;;;1.45;;
23800;SDS011;12081;48.614;10.226;2023-05-07T13:01:33;2.30;;;1.45;;
23800;SDS011;12081;48.614;10.226;2023-05-07T13:04:18;1.67;;;1.30;;
23800;SDS011;12081;48.614;10.226;2023-05-07T13:07:02;5.28;;;1.70;;
23800;SDS011;12081;48.614;10.226;2023-05-07T13:09:47;2.08;;;1.30;;
23800;SDS011;12081;48.614;10.226;2023-05-07T13:12:31;2.72;;;1.40;;
23800;SDS011;12081;48.614;10.226;2023-05-07T13:15:16;1.90;;;1.48;;
23800;SDS011;12081;48.614;10.226;2023-05-07T13:18:01;5.55;;;1.80;;
23800;SDS011;12081;48.614;10.226;2023-05-07T13:20:45;1.30;;;1.17;;
23800;SDS011;12081;48.614;10.226;2023-05-07T13:23:30;2.67;;;1.92;;
23800;SDS011;12081;48.614;10.226;2023-05-07T13:26:14;1.60;;;1.40;;
23800;SDS011;12081;48.614;10.226;2023-05-07T13:28:58;2.22;;;1.55;;
23800;SDS011;12081;48.614;10.226;2023-05-07T13:31:42;2.10;;;1.73;;
23800;SDS011;12081;48.614;10.226;2023-05-07T13:34:27;2.55;;;1.63;;
23800;SDS011;12081;48.614;10.226;2023-05-07T13:37:12;2.45;;;1.58;;
23800;SDS011;12081;48.614;10.226;2023-05-07T13:39:56;2.60;;;1.50;;
23800;SDS011;12081;48.614;10.226;2023-05-07T13:42:40;2.78;;;1.38;;
23800;SDS011;12081;48.614;10.226;2023-05-07T13:45:24;1.27;;;1.17;;
23800;SDS011;12081;48.614;10.226;2023-05-07T13:48:09;1.73;;;1.42;;
23800;SDS011;12081;48.614;10.226;2023-05-07T13:50:53;1.83;;;1.50;;
23800;SDS011;12081;48.614;10.226;2023-05-07T13:53:37;3.17;;;1.52;;
23800;SDS011;12081;48.614;10.226;2023-05-07T13:56:21;1.52;;;1.42;;
23800;SDS011;12081;48.614;10.226;2023-05-07T13:59:07;2.05;;;1.70;;
23800;SDS011;12081;48.614;10.226;2023-05-07T14:01:51;3.63;;;1.40;;
23800;SDS011;12081;48.614;10.226;2023-05-07T14:04:36;5.57;;;1.30;;
23800;SDS011;12081;48.614;10.226;2023-05-07T14:07:21;3.38;;;1.67;;
23800;SDS011;12081;48.614;10.226;2023-05-07T14:10:05;2.15;;;1.63;;
23800;SDS011;12081;48.614;10.226;2023-05-07T14:12:50;2.65;;;1.83;;
23800;SDS011;12081;48.614;10.226;2023-05-07T14:15:35;2.90;;;1.50;;
23800;SDS011;12081;48.614;10.226;2023-05-07T14:18:20;3.65;;;1.85;;
23800;SDS011;12081;48.614;10.226;2023-05-07T14:21:04;1.58;;;1.40;;
23800;SDS011;12081;48.614;10.226;2023-05-07T14:23:49;3.80;;;2.08;;
23800;SDS011;12081;48.614;10.226;2023-05-07T14:26:34;3.95;;;2.15;;
23800;SDS011;12081;48.614;10.226;2023-05-07T14:29:19;2.60;;;1.98;;
23800;SDS011;12081;48.614;10.226;2023-05-07T14:32:03;2.72;;;2.00;;
23800;SDS011;12081;48.614;10.226;2023-05-07T14:34:48;2.70;;;2.17;;
23800;SDS011;12081;48.614;10.226;2023-05-07T14:37:32;2.47;;;2.00;;
23800;SDS011;12081;48.614;10.226;2023-05-07T14:40:16;3.53;;;2.08;;
23800;SDS011;12081;48.614;10.226;2023-05-07T14:43:00;2.00;;;1.70;;
23800;SDS011;12081;48.614;10.226;2023-05-07T14:45:44;3.00;;;1.60;;
23800;SDS011;12081;48.614;10.226;2023-05-07T14:48:29;2.97;;;1.70;;
23800;SDS011;12081;48.614;10.226;2023-05-07T14:51:13;2.72;;;2.05;;
23800;SDS011;12081;48.614;10.226;2023-05-07T14:53:57;2.50;;;1.98;;
23800;SDS011;12081;48.614;10.226;2023-05-07T14:56:41;2.30;;;2.10;;
23800;SDS011;12081;48.614;10.226;2023-05-07T14:59:26;4.85;;;2.20;;
23800;SDS011;12081;48.614;10.226;2023-05-07T15:02:11;4.25;;;3.00;;
23800;SDS011;12081;48.614;10.226;2023-05-07T15:04:55;3.33;;;2.20;;
23800;SDS011;12081;48.614;10.226;2023-05-07T15:07:39;4.35;;;2.92;;
23800;SDS011;12081;48.614;10.226;2023-05-07T15:10:23;3.08;;;2.40;;
23800;SDS011;12081;48.614;10.226;2023-05-07T15:13:08;4.13;;;3.13;;
23800;SDS011;12081;48.614;10.226;2023-05-07T15:15:54;3.35;;;2.20;;
23800;SDS011;12081;48.614;10.226;2023-05-07T15:18:38;3.97;;;2.63;;
23800;SDS011;12081;48.614;10.226;2023-05-07T15:21:22;7.03;;;2.88;;
23800;SDS011;12081;48.614;10.226;2023-05-07T15:24:06;3.05;;;2.60;;
23800;SDS011;12081;48.614;10.226;2023-05-07T15:45:00;2.88;;;2.55;;
23800;SDS011;12081;48.614;10.226;2023-05-07T16:18:04;2.40;;;2.20;;
23800;SDS011;12081;48.614;10.226;2023-05-07T16:21:26;3.05;;;2.30;;
23800;SDS011;12081;48.614;10.226;2023-05-07T16:24:11;2.78;;;2.10;;
23800;SDS011;12081;48.614;10.226;2023-05-07T16:26:55;3.17;;;2.35;;
23800;SDS011;12081;48.614;10.226;2023-05-07T16:29:39;2.92;;;2.03;;
23800;SDS011;12081;48.614;10.226;2023-05-07T16:32:24;2.20;;;1.92;;
23800;SDS011;12081;48.614;10.226;2023-05-07T16:35:10;3.40;;;2.20;;
23800;SDS011;12081;48.614;10.226;2023-05-07T16:37:54;3.25;;;2.40;;
23800;SDS011;12081;48.614;10.226;2023-05-07T16:40:40;2.67;;;2.45;;
23800;SDS011;12081;48.614;10.226;2023-05-07T16:44:44;2.53;;;2.20;;
23800;SDS011;12081;48.614;10.226;2023-05-07T17:22:53;2.53;;;1.37;;
23800;SDS011;12081;48.614;10.226;2023-05-07T17:25:40;3.20;;;1.60;;
23800;SDS011;12081;48.614;10.226;2023-05-07T17:36:18;6.07;;;3.80;;
23800;SDS011;12081;48.614;10.226;2023-05-07T17:41:53;6.90;;;3.90;;
23800;SDS011;12081;48.614;10.226;2023-05-07T17:44:37;7.33;;;4.90;;
23800;SDS011;12081;48.614;10.226;2023-05-07T17:47:21;8.97;;;3.87;;
23800;SDS011;12081;48.614;10.226;2023-05-07T17:50:06;7.57;;;3.80;;
23800;SDS011;12081;48.614;10.226;2023-05-07T17:52:53;8.77;;;3.73;;
23800;SDS011;12081;48.614;10.226;2023-05-07T17:55:41;7.33;;;4.10;;
23800;SDS011;12081;48.614;10.226;2023-05-07T17:58:26;4.83;;;3.60;;
23800;SDS011;12081;48.614;10.226;2023-05-07T18:01:11;7.53;;;2.40;;
23800;SDS011;12081;48.614;10.226;2023-05-07T18:03:56;2.63;;;2.20;;
23800;SDS011;12081;48.614;10.226;2023-05-07T18:06:40;5.77;;;2.80;;
23800;SDS011;12081;48.614;10.226;2023-05-07T18:09:25;1.97;;;1.57;;
23800;SDS011;12081;48.614;10.226;2023-05-07T18:12:10;7.40;;;1.53;;
23800;SDS011;12081;48.614;10.226;2023-05-07T18:14:54;1.47;;;1.30;;
23800;SDS011;12081;48.614;10.226;2023-05-07T18:17:39;1.50;;;1.40;;
23800;SDS011;12081;48.614;10.226;2023-05-07T18:20:23;1.40;;;1.30;;
23800;SDS011;12081;48.614;10.226;2023-05-07T18:23:08;1.47;;;1.20;;
23800;SDS011;12081;48.614;10.226;2023-05-07T18:25:53;3.40;;;1.70;;
23800;SDS011;12081;48.614;10.226;2023-05-07T18:28:37;1.70;;;1.60;;
23800;SDS011;12081;48.614;10.226;2023-05-07T18:31:21;2.23;;;1.60;;
23800;SDS011;12081;48.614;10.226;2023-05-07T18:34:05;1.97;;;1.40;;
23800;SDS011;12081;48.614;10.226;2023-05-07T18:36:49;2.33;;;1.47;;
23800;SDS011;12081;48.614;10.226;2023-05-07T18:39:34;5.03;;;3.13;;
23800;SDS011;12081;48.614;10.226;2023-05-07T18:42:18;2.53;;;1.80;;
23800;SDS011;12081;48.614;10.226;2023-05-07T18:45:03;3.90;;;1.97;;
23800;SDS011;12081;48.614;10.226;2023-05-07T18:47:48;2.67;;;2.27;;
23800;SDS011;12081;48.614;10.226;2023-05-07T18:50:32;4.23;;;2.30;;
23800;SDS011;12081;48.614;10.226;2023-05-07T18:53:17;4.40;;;3.00;;
23800;SDS011;12081;48.614;10.226;2023-05-07T18:56:01;6.37;;;3.70;;
23800;SDS011;12081;48.614;10.226;2023-05-07T18:58:45;4.10;;;2.83;;
23800;SDS011;12081;48.614;10.226;2023-05-07T19:01:30;4.47;;;2.23;;
23800;SDS011;12081;48.614;10.226;2023-05-07T19:04:14;2.40;;;2.20;;
23800;SDS011;12081;48.614;10.226;2023-05-07T19:06:59;5.27;;;1.70;;
23800;SDS011;12081;48.614;10.226;2023-05-07T19:09:43;2.53;;;1.60;;
23800;SDS011;12081;48.614;10.226;2023-05-07T19:12:27;4.80;;;2.10;;
23800;SDS011;12081;48.614;10.226;2023-05-07T19:15:11;4.30;;;1.60;;
23800;SDS011;12081;48.614;10.226;2023-05-07T19:17:56;2.27;;;1.40;;
23800;SDS011;12081;48.614;10.226;2023-05-07T19:20:40;1.73;;;1.10;;
23800;SDS011;12081;48.614;10.226;2023-05-07T19:23:25;3.40;;;1.50;;
23800;SDS011;12081;48.614;10.226;2023-05-07T19:26:09;1.47;;;1.37;;
23800;SDS011;12081;48.614;10.226;2023-05-07T19:28:54;2.77;;;1.40;;
23800;SDS011;12081;48.614;10.226;2023-05-07T19:31:39;5.67;;;3.70;;
23800;SDS011;12081;48.614;10.226;2023-05-07T19:34:23;5.97;;;3.97;;
23800;SDS011;12081;48.614;10.226;2023-05-07T19:37:07;4.93;;;3.70;;
23800;SDS011;12081;48.614;10.226;2023-05-07T19:39:52;2.87;;;2.57;;
23800;SDS011;12081;48.614;10.226;2023-05-07T19:42:38;3.40;;;2.07;;
23800;SDS011;12081;48.614;10.226;2023-05-07T19:45:22;8.83;;;4.70;;
23800;SDS011;12081;48.614;10.226;2023-05-07T19:48:07;9.90;;;5.70;;
23800;SDS011;12081;48.614;10.226;2023-05-07T19:50:51;3.23;;;2.90;;
23800;SDS011;12081;48.614;10.226;2023-05-07T19:53:36;6.10;;;4.20;;
23800;SDS011;12081;48.614;10.226;2023-05-07T19:56:20;8.17;;;5.27;;
23800;SDS011;12081;48.614;10.226;2023-05-07T19:59:05;3.20;;;1.80;;
23800;SDS011;12081;48.614;10.226;2023-05-07T20:01:49;2.13;;;1.43;;
23800;SDS011;12081;48.614;10.226;2023-05-07T20:04:33;5.53;;;4.13;;
23800;SDS011;12081;48.614;10.226;2023-05-07T20:07:20;4.43;;;3.60;;
23800;SDS011;12081;48.614;10.226;2023-05-07T20:10:05;6.67;;;3.83;;
23800;SDS011;12081;48.614;10.226;2023-05-07T20:12:49;9.43;;;6.20;;
23800;SDS011;12081;48.614;10.226;2023-05-07T20:15:37;8.17;;;3.37;;
23800;SDS011;12081;48.614;10.226;2023-05-07T20:18:22;3.80;;;2.17;;
23800;SDS011;12081;48.614;10.226;2023-05-07T20:21:07;2.63;;;1.60;;
23800;SDS011;12081;48.614;10.226;2023-05-07T20:23:51;3.63;;;2.40;;
23800;SDS011;12081;48.614;10.226;2023-05-07T20:26:36;1.97;;;1.50;;
23800;SDS011;12081;48.614;10.226;2023-05-07T20:29:21;2.03;;;1.40;;
23800;SDS011;12081;48.614;10.226;2023-05-07T20:32:06;4.47;;;1.70;;
23800;SDS011;12081;48.614;10.226;2023-05-07T20:34:50;1.90;;;1.60;;
23800;SDS011;12081;48.614;10.226;2023-05-07T20:37:37;2.63;;;2.17;;
23800;SDS011;12081;48.614;10.226;2023-05-07T20:40:22;3.97;;;2.87;;
23800;SDS011;12081;48.614;10.226;2023-05-07T20:43:06;4.70;;;2.53;;
23800;SDS011;12081;48.614;10.226;2023-05-07T20:46:00;2.20;;;2.00;;
23800;SDS011;12081;48.614;10.226;2023-05-07T20:48:50;2.13;;;1.93;;
23800;SDS011;12081;48.614;10.226;2023-05-07T20:51:35;4.20;;;2.40;;
23800;SDS011;12081;48.614;10.226;2023-05-07T20:54:20;2.97;;;2.30;;
23800;SDS011;12081;48.614;10.226;2023-05-07T20:57:05;2.60;;;2.30;;
23800;SDS011;12081;48.614;10.226;2023-05-07T20:59:50;3.37;;;2.13;;
23800;SDS011;12081;48.614;10.226;2023-05-07T21:02:34;4.97;;;2.20;;
23800;SDS011;12081;48.614;10.226;2023-05-07T21:05:18;2.83;;;1.80;;
23800;SDS011;12081;48.614;10.226;2023-05-07T21:08:02;1.80;;;1.50;;
23800;SDS011;12081;48.614;10.226;2023-05-07T21:10:47;2.47;;;1.97;;
23800;SDS011;12081;48.614;10.226;2023-05-07T21:13:32;3.87;;;2.40;;
23800;SDS011;12081;48.614;10.226;2023-05-07T21:16:16;3.57;;;2.70;;
23800;SDS011;12081;48.614;10.226;2023-05-07T21:19:01;2.73;;;2.20;;
23800;SDS011;12081;48.614;10.226;2023-05-07T21:21:45;6.33;;;2.20;;
23800;SDS011;12081;48.614;10.226;2023-05-07T21:24:29;2.20;;;2.00;;
23800;SDS011;12081;48.614;10.226;2023-05-07T21:27:13;2.57;;;2.17;;
23800;SDS011;12081;48.614;10.226;2023-05-07T21:29:57;4.10;;;2.30;;
23800;SDS011;12081;48.614;10.226;2023-05-07T21:32:46;3.50;;;2.37;;
23800;SDS011;12081;48.614;10.226;2023-05-07T21:35:30;3.77;;;2.30;;
23800;SDS011;12081;48.614;10.226;2023-05-07T21:38:14;2.67;;;2.20;;
23800;SDS011;12081;48.614;10.226;2023-05-07T21:41:00;2.93;;;2.63;;
23800;SDS011;12081;48.614;10.226;2023-05-07T21:43:45;3.77;;;2.40;;
23800;SDS011;12081;48.614;10.226;2023-05-07T21:46:29;2.60;;;2.00;;
23800;SDS011;12081;48.614;10.226;2023-05-07T21:49:13;2.50;;;2.30;;
23800;SDS011;12081;48.614;10.226;2023-05-07T21:51:57;3.33;;;2.50;;
23800;SDS011;12081;48.614;10.226;2023-05-07T21:54:41;3.53;;;2.40;;
23800;SDS011;12081;48.614;10.226;2023-05-07T21:57:26;4.00;;;3.43;;